Time,TemperatureF,DewpointF,PressureIn,WindDirection,WindDirectionDegrees,WindSpeedMPH,WindSpeedGustMPH,Humidity,HourlyPrecipIn,Conditions,Clouds,dailyrainin,SolarRadiationWatts/m^2,SoftwareType,DateUTC
2013-01-18 00:22:00,31.0,31.0,-100.00,South,190,2.0,5.0,98,0.00,,,0.96,0.000000,,2013-01-18 09:22:00,
2013-01-18 00:32:00,31.0,31.0,-100.00,South,190,2.0,5.0,98,0.00,,,0.96,0.000000,,2013-01-18 09:32:00,
2013-01-18 00:42:00,31.0,31.0,-100.00,South,190,2.0,5.0,98,0.00,,,0.96,0.000000,,2013-01-18 09:42:00,
2013-01-18 00:52:00,31.0,31.0,-100.00,South,190,2.0,5.0,98,0.00,,,0.96,0.000000,,2013-01-18 09:52:00,
2013-01-18 01:22:00,30.0,30.0,-100.00,South,171,1.0,4.0,99,0.00,,,0.70,0.000000,,2013-01-18 10:22:00,
2013-01-18 01:32:00,30.0,30.0,-100.00,South,171,1.0,4.0,99,0.00,,,0.70,0.000000,,2013-01-18 10:32:00,
2013-01-18 01:42:00,30.0,30.0,-100.00,South,171,1.0,4.0,99,0.00,,,0.70,0.000000,,2013-01-18 10:42:00,
2013-01-18 01:52:00,30.0,30.0,-100.00,South,171,1.0,4.0,99,0.00,,,0.70,0.000000,,2013-01-18 10:52:00,
2013-01-18 02:22:00,31.0,31.0,-100.00,South,175,3.0,5.0,99,0.00,,,0.54,0.000000,,2013-01-18 11:22:00,
2013-01-18 02:32:00,31.0,31.0,-100.00,South,175,3.0,5.0,99,0.00,,,0.54,0.000000,,2013-01-18 11:32:00,
2013-01-18 02:42:00,31.0,31.0,-100.00,South,175,3.0,5.0,99,0.00,,,0.54,0.000000,,2013-01-18 11:42:00,
2013-01-18 02:52:00,31.0,31.0,-100.00,South,175,3.0,5.0,99,0.00,,,0.54,0.000000,,2013-01-18 11:52:00,
2013-01-18 03:22:00,32.0,31.0,-100.00,SSE,150,1.0,4.0,97,0.00,,,0.38,0.000000,,2013-01-18 12:22:00,
2013-01-18 03:32:00,32.0,31.0,-100.00,SSE,150,1.0,4.0,97,0.00,,,0.38,0.000000,,2013-01-18 12:32:00,
2013-01-18 03:42:00,32.0,31.0,-100.00,SSE,150,1.0,4.0,97,0.00,,,0.38,0.000000,,2013-01-18 12:42:00,
2013-01-18 03:52:00,32.0,31.0,-100.00,SSE,150,1.0,4.0,97,0.00,,,0.38,0.000000,,2013-01-18 12:52:00,
2013-01-18 04:22:00,32.0,32.0,-100.00,SSE,166,2.0,4.0,98,0.00,,,0.35,0.000000,,2013-01-18 13:22:00,
2013-01-18 04:33:00,32.0,32.0,-100.00,SSE,166,2.0,4.0,98,0.00,,,0.35,0.000000,,2013-01-18 13:33:00,
2013-01-18 04:42:00,32.0,32.0,-100.00,SSE,166,2.0,4.0,98,0.00,,,0.35,0.000000,,2013-01-18 13:42:00,
2013-01-18 04:52:00,32.0,32.0,-100.00,SSE,166,2.0,4.0,98,0.00,,,0.35,0.000000,,2013-01-18 13:52:00,
2013-01-18 05:22:00,31.0,30.0,-100.00,South,174,2.0,5.0,97,0.00,,,0.28,0.000000,,2013-01-18 14:22:00,
2013-01-18 05:33:00,31.0,30.0,-100.00,South,174,2.0,5.0,97,0.00,,,0.28,0.000000,,2013-01-18 14:33:00,
2013-01-18 05:42:00,31.0,30.0,-100.00,South,174,2.0,5.0,97,0.00,,,0.28,0.000000,,2013-01-18 14:42:00,
2013-01-18 05:52:00,31.0,30.0,-100.00,South,174,2.0,5.0,97,0.00,,,0.28,0.000000,,2013-01-18 14:52:00,
2013-01-18 06:23:00,31.0,31.0,-100.00,SSE,158,2.0,4.0,99,0.00,,,0.17,0.000000,,2013-01-18 15:23:00,
2013-01-18 06:33:00,31.0,31.0,-100.00,SSE,158,2.0,4.0,99,0.00,,,0.17,0.000000,,2013-01-18 15:33:00,
2013-01-18 06:42:00,31.0,31.0,-100.00,SSE,158,2.0,4.0,99,0.00,,,0.17,0.000000,,2013-01-18 15:42:00,
2013-01-18 06:52:00,31.0,31.0,-100.00,SSE,158,2.0,4.0,99,0.00,,,0.17,0.000000,,2013-01-18 15:52:00,
2013-01-18 07:23:00,29.0,29.0,-100.00,West,266,1.0,4.0,99,0.00,,,0.11,0.000000,,2013-01-18 16:23:00,
2013-01-18 07:33:00,29.0,29.0,-100.00,West,266,1.0,4.0,99,0.00,,,0.11,0.000000,,2013-01-18 16:33:00,
2013-01-18 07:42:00,29.0,29.0,-100.00,West,266,1.0,4.0,99,0.00,,,0.11,0.000000,,2013-01-18 16:42:00,
2013-01-18 07:52:00,29.0,29.0,-100.00,West,266,1.0,4.0,99,0.00,,,0.11,0.000000,,2013-01-18 16:52:00,
2013-01-18 08:23:00,30.0,30.0,-100.00,SSE,165,2.0,4.0,100,0.00,,,-99.99,0.000000,,2013-01-18 17:23:00,
2013-01-18 08:33:00,30.0,30.0,-100.00,SSE,165,2.0,4.0,100,0.00,,,-99.99,0.000000,,2013-01-18 17:33:00,
2013-01-18 08:42:00,30.0,30.0,-100.00,SSE,165,2.0,4.0,100,0.00,,,-99.99,0.000000,,2013-01-18 17:42:00,
2013-01-18 08:53:00,30.0,30.0,-100.00,SSE,165,2.0,4.0,100,0.00,,,-99.99,0.000000,,2013-01-18 17:53:00,
2013-01-18 09:23:00,31.0,31.0,-100.00,SSE,166,3.0,4.0,100,0.00,,,0.08,10.000000,,2013-01-18 18:23:00,
2013-01-18 09:33:00,31.0,31.0,-100.00,SSE,166,3.0,4.0,100,0.00,,,0.08,10.000000,,2013-01-18 18:33:00,
2013-01-18 09:43:00,31.0,31.0,-100.00,SSE,166,3.0,4.0,100,0.00,,,0.08,10.000000,,2013-01-18 18:43:00,
2013-01-18 09:52:00,31.0,31.0,-100.00,SSE,166,3.0,4.0,100,0.00,,,0.08,10.000000,,2013-01-18 18:52:00,
2013-01-18 10:22:00,32.0,32.0,-100.00,SSW,194,2.0,6.0,99,0.00,,,-99.99,51.000000,,2013-01-18 19:22:00,
2013-01-18 10:33:00,32.0,32.0,-100.00,SSW,194,2.0,6.0,99,0.00,,,-99.99,51.000000,,2013-01-18 19:33:00,
2013-01-18 10:42:00,32.0,32.0,-100.00,SSW,194,2.0,6.0,99,0.00,,,-99.99,51.000000,,2013-01-18 19:42:00,
2013-01-18 10:52:00,32.0,32.0,-100.00,SSW,194,2.0,6.0,99,0.00,,,-99.99,51.000000,,2013-01-18 19:52:00,
2013-01-18 11:22:00,33.0,32.0,-100.00,SSE,159,1.0,5.0,98,0.00,,,0.07,64.000000,,2013-01-18 20:22:00,
2013-01-18 11:33:00,33.0,32.0,-100.00,SSE,159,1.0,5.0,98,0.00,,,0.07,64.000000,,2013-01-18 20:33:00,
2013-01-18 11:42:00,33.0,32.0,-100.00,SSE,159,1.0,5.0,98,0.00,,,0.07,64.000000,,2013-01-18 20:42:00,
2013-01-18 11:52:00,33.0,32.0,-100.00,SSE,159,1.0,5.0,98,0.00,,,0.07,64.000000,,2013-01-18 20:52:00,
2013-01-18 12:22:00,36.0,34.0,-100.00,South,172,3.0,5.0,93,0.01,,,0.08,198.000000,,2013-01-18 21:22:00,
2013-01-18 12:33:00,36.0,34.0,-100.00,South,172,3.0,5.0,93,0.01,,,0.08,198.000000,,2013-01-18 21:33:00,
2013-01-18 12:42:00,36.0,34.0,-100.00,South,172,3.0,5.0,93,0.01,,,0.08,198.000000,,2013-01-18 21:42:00,
2013-01-18 12:52:00,36.0,34.0,-100.00,South,172,3.0,5.0,93,0.01,,,0.08,198.000000,,2013-01-18 21:52:00,
2013-01-18 13:22:00,36.0,34.0,-100.00,South,180,1.0,6.0,91,0.00,,,0.07,145.000000,,2013-01-18 22:22:00,
2013-01-18 13:32:00,36.0,34.0,-100.00,South,180,1.0,6.0,91,0.00,,,0.07,145.000000,,2013-01-18 22:32:00,
2013-01-18 13:42:00,36.0,34.0,-100.00,South,180,1.0,6.0,91,0.00,,,0.07,145.000000,,2013-01-18 22:42:00,
2013-01-18 13:52:00,36.0,34.0,-100.00,South,180,1.0,6.0,91,0.00,,,0.07,145.000000,,2013-01-18 22:52:00,
2013-01-18 14:22:00,35.0,33.0,-100.00,South,185,2.0,4.0,94,0.00,,,0.06,66.000000,,2013-01-18 23:22:00,
2013-01-18 14:32:00,35.0,33.0,-100.00,South,185,2.0,4.0,94,0.00,,,0.06,66.000000,,2013-01-18 23:32:00,
2013-01-18 14:42:00,35.0,33.0,-100.00,South,185,2.0,4.0,94,0.00,,,0.06,66.000000,,2013-01-18 23:42:00,
2013-01-18 14:52:00,35.0,33.0,-100.00,South,185,2.0,4.0,94,0.00,,,0.06,66.000000,,2013-01-18 23:52:00,
2013-01-18 15:22:00,35.0,34.0,-100.00,SSE,156,2.0,4.0,96,0.00,,,0.02,48.000000,,2013-01-19 00:22:00,
2013-01-18 15:32:00,35.0,34.0,-100.00,SSE,156,2.0,4.0,96,0.00,,,0.02,48.000000,,2013-01-19 00:32:00,
2013-01-18 15:42:00,35.0,34.0,-100.00,SSE,156,2.0,4.0,96,0.00,,,0.02,48.000000,,2013-01-19 00:42:00,
2013-01-18 15:52:00,35.0,34.0,-100.00,SSE,156,2.0,4.0,96,0.00,,,0.02,48.000000,,2013-01-19 00:52:00,
2013-01-18 16:22:00,34.0,33.0,-100.00,SE,144,1.0,3.0,97,0.00,,,0.01,18.000000,,2013-01-19 01:22:00,
2013-01-18 16:32:00,34.0,33.0,-100.00,SE,144,1.0,3.0,97,0.00,,,0.01,18.000000,,2013-01-19 01:32:00,
2013-01-18 16:42:00,34.0,33.0,-100.00,SE,144,1.0,3.0,97,0.00,,,0.01,18.000000,,2013-01-19 01:42:00,
2013-01-18 16:52:00,34.0,33.0,-100.00,SE,144,1.0,3.0,97,0.00,,,0.01,18.000000,,2013-01-19 01:52:00,
2013-01-18 17:22:00,33.0,32.0,-100.00,South,169,2.0,4.0,98,0.00,,,0.01,0.000000,,2013-01-19 02:22:00,
2013-01-18 17:32:00,33.0,32.0,-100.00,South,169,2.0,4.0,98,0.00,,,0.01,0.000000,,2013-01-19 02:32:00,
2013-01-18 17:42:00,33.0,32.0,-100.00,South,169,2.0,4.0,98,0.00,,,0.01,0.000000,,2013-01-19 02:42:00,
2013-01-18 17:52:00,33.0,32.0,-100.00,South,169,2.0,4.0,98,0.00,,,0.01,0.000000,,2013-01-19 02:52:00,
2013-01-18 18:22:00,33.0,32.0,-100.00,WSW,238,0.0,4.0,98,0.00,,,0.01,0.000000,,2013-01-19 03:22:00,
2013-01-18 18:32:00,33.0,32.0,-100.00,WSW,238,0.0,4.0,98,0.00,,,0.01,0.000000,,2013-01-19 03:32:00,
2013-01-18 18:42:00,33.0,32.0,-100.00,WSW,238,0.0,4.0,98,0.00,,,0.01,0.000000,,2013-01-19 03:42:00,
2013-01-18 18:52:00,33.0,32.0,-100.00,WSW,238,0.0,4.0,98,0.00,,,0.01,0.000000,,2013-01-19 03:52:00,
2013-01-18 19:22:00,33.0,33.0,-100.00,SSW,212,1.0,4.0,99,0.00,,,0.01,0.000000,,2013-01-19 04:22:00,
2013-01-18 19:32:00,33.0,33.0,-100.00,SSW,212,1.0,4.0,99,0.00,,,0.01,0.000000,,2013-01-19 04:32:00,
2013-01-18 19:42:00,33.0,33.0,-100.00,SSW,212,1.0,4.0,99,0.00,,,0.01,0.000000,,2013-01-19 04:42:00,
2013-01-18 19:52:00,33.0,33.0,-100.00,SSW,212,1.0,4.0,99,0.00,,,0.01,0.000000,,2013-01-19 04:52:00,
2013-01-18 20:22:00,32.0,32.0,-100.00,NNW,329,1.0,2.0,99,0.00,,,0.01,0.000000,,2013-01-19 05:22:00,
2013-01-18 20:32:00,32.0,32.0,-100.00,NNW,329,1.0,2.0,99,0.00,,,0.01,0.000000,,2013-01-19 05:32:00,
2013-01-18 20:42:00,32.0,32.0,-100.00,NNW,329,1.0,2.0,99,0.00,,,0.01,0.000000,,2013-01-19 05:42:00,
2013-01-18 20:52:00,32.0,32.0,-100.00,NNW,329,1.0,2.0,99,0.00,,,0.01,0.000000,,2013-01-19 05:52:00,
2013-01-18 21:22:00,33.0,33.0,-100.00,SE,127,4.0,8.0,99,0.00,,,0.01,0.000000,,2013-01-19 06:22:00,
2013-01-18 21:32:00,33.0,33.0,-100.00,SE,127,4.0,8.0,99,0.00,,,0.01,0.000000,,2013-01-19 06:32:00,
2013-01-18 21:43:00,33.0,33.0,-100.00,SE,127,4.0,8.0,99,0.00,,,0.01,0.000000,,2013-01-19 06:43:00,
2013-01-18 21:52:00,33.0,33.0,-100.00,SE,127,4.0,8.0,99,0.00,,,0.01,0.000000,,2013-01-19 06:52:00,
2013-01-18 22:22:00,33.0,32.0,-100.00,ESE,112,3.0,8.0,97,0.00,,,0.01,0.000000,,2013-01-19 07:22:00,
2013-01-18 22:32:00,33.0,32.0,-100.00,ESE,112,3.0,8.0,97,0.00,,,0.01,0.000000,,2013-01-19 07:32:00,
2013-01-18 22:42:00,33.0,32.0,-100.00,ESE,112,3.0,8.0,97,0.00,,,0.01,0.000000,,2013-01-19 07:42:00,
2013-01-18 22:52:00,33.0,32.0,-100.00,ESE,112,3.0,8.0,97,0.00,,,0.01,0.000000,,2013-01-19 07:52:00,
2013-01-18 23:22:00,33.0,32.0,-100.00,South,189,2.0,6.0,95,0.00,,,0.01,0.000000,,2013-01-19 08:22:00,
2013-01-18 23:32:00,33.0,32.0,-100.00,South,189,2.0,6.0,95,0.00,,,0.01,0.000000,,2013-01-19 08:32:00,
2013-01-18 23:42:00,33.0,32.0,-100.00,South,189,2.0,6.0,95,0.00,,,0.01,0.000000,,2013-01-19 08:42:00,
2013-01-18 23:52:00,33.0,32.0,-100.00,South,189,2.0,6.0,95,0.00,,,0.01,0.000000,,2013-01-19 08:52:00,